エドモントン の空港の天気 - METARとTAF

エドモントン国際空港 ( CYEG / YEG ) - カナダ アルバータ州Edmonton Capital Region
飛行場実況気象(Metar)
観測時間10/19 12:00 MDT (10/19 18:00 UTC)
風向・風速西北西 4m/s
視程10km以上
天気現象
少しの雲 雲底高度 2440m
全天の8割程度の雲 雲底高度 7010m
気温9℃
湿度46%
気圧1029.6hPa
METARCYEG 191800Z 30007KT 260V320 20SM FEW080 BKN230 09/M02 A3032 RMK AC1CI7 AC TR SLP296
過去の天気等 Google飛行場航空写真 Wunderground天気予報

過去48時間のMETAR

飛行場予報(TAF)
発表時間: 10/19 11:39 MDT (10/19 17:39 UTC)
予報対象時間: 19日12時 MDT ~ 20日12時 MDT
風向・風速西 3m/s
視程10km以上
少しの雲 雲底高度 3660m
全天の4割程度の雲 雲底高度 7620m
19日14時 MDT ~ 19日16時 MDT に徐々に
風向・風速不定 2m/s
19日18時 MDT ~ 19日20時 MDT に徐々に
風向・風速南東 4m/s
19日22時 MDT から
風向・風速南東 6m/s
全天の4割程度の雲 雲底高度 3660m
全天の4割程度の雲 雲底高度 7620m
20日4時 MDT ~ 20日6時 MDT に徐々に
風向・風速南 4m/s
20日9時 MDT から
風向・風速西 4m/s
視程10km以上
全天の4割程度の雲 雲底高度 3660m
20日10時 MDT ~ 20日12時 MDT に徐々に
風向・風速西北西 6m/s 瞬間風速 11m/s
TAF CYEG 191739Z 1918/2018 27006KT P6SM FEW120 SCT250
BECMG 1920/1922 VRB03KT
BECMG 2000/2002 14008KT
FM200400 14012KT WS008/16040KT P6SM SCT120 SCT250
BECMG 2010/2012 18008KT
FM201500 28008KT P6SM SCT120
BECMG 2016/2018 30012G22KT RMK NXT FCST BY 192100Z